Cannon, Mississippi
Current Conditions -  °F | °C
As of 7:55 AM on Wednesday 26 Nov 2014 (Local Time) from KUOX Reporting Station
Clear Clear  
Wind Chill: 27°   Ceiling: Unl
Heat Index: 32°   Visibility: 9mi
Dew Point: 27°   Wind: 5mph
Humidity: 80%   Direction: 150°SSE
Pressure: 30.18"   Gusts: NA
Location:  34.7855°N, 89.1846°W
Report Text: KUOX 261355Z AUTO 15004KT 9SM CLR 00/M03 A3018 RMK AO2 PWINO PNO
Loading
Personal Weather Stations






























Interactive Weather Map New forecast layout! Learn more

10-Day Weather Forecast

Advertisements
Track Severe Weather on mobile